Time;durP1;ratioP1;P1;durP2;ratioP2;P2;SDS_P1;SDS_P2;PMS_P1;PMS_P2;Temp;Humidity;BMP_temperature;BMP_pressure;BME280_temperature;BME280_humidity;BME280_pressure;Samples;Min_cycle;Max_cycle;Signal;HPM_P1;HPM_P2
2021/12/13 00:00:20;;;;;;;5.87;3.73;;;;;;;4.78;100.00;99381.66;5071355;28;20207;-66
2021/12/13 00:02:56;;;;;;;3.57;3.37;;;;;;;4.76;100.00;99380.81;5071102;28;20195;-66
2021/12/13 00:05:30;;;;;;;4.07;3.70;;;;;;;4.76;100.00;99385.06;5071664;28;20196;-66
2021/12/13 00:08:00;;;;;;;4.47;3.97;;;;;;;4.78;100.00;99381.66;5070096;28;20207;-67
2021/12/13 00:10:34;;;;;;;3.37;3.17;;;;;;;4.80;100.00;99388.44;5069555;28;20712;-67
2021/12/13 00:13:06;;;;;;;3.10;3.00;;;;;;;4.82;100.00;99392.63;5069018;28;20203;-66
2021/12/13 00:15:38;;;;;;;3.20;3.10;;;;;;;4.81;100.00;99390.97;5069086;28;20192;-66
2021/12/13 00:18:08;;;;;;;3.17;3.07;;;;;;;4.76;100.00;99383.38;5068852;28;20211;-66
2021/12/13 00:20:39;;;;;;;2.50;2.40;;;;;;;4.85;100.00;99391.78;5068966;28;20695;-66
2021/12/13 00:23:16;;;;;;;3.40;3.20;;;;;;;4.85;100.00;99397.69;5067813;28;20668;-66
2021/12/13 00:25:47;;;;;;;3.00;2.90;;;;;;;4.79;100.00;99390.13;5069131;28;20196;-67
2021/12/13 00:28:17;;;;;;;2.60;2.50;;;;;;;4.81;100.00;99385.88;5069303;28;20196;-66
2021/12/13 00:30:57;;;;;;;2.77;2.67;;;;;;;4.70;100.00;99372.41;5069022;28;20199;-66
2021/12/13 00:33:33;;;;;;;3.30;3.10;;;;;;;4.90;100.00;99387.50;5070054;28;20192;-67
2021/12/13 00:36:06;;;;;;;2.90;2.80;;;;;;;4.91;100.00;99392.56;5070026;28;20196;-67
2021/12/13 00:38:40;;;;;;;2.70;2.60;;;;;;;4.89;100.00;99398.50;5070469;28;20215;-67
2021/12/13 00:41:13;;;;;;;3.23;3.07;;;;;;;4.87;100.00;99401.06;5070601;28;20250;-66
2021/12/13 00:43:47;;;;;;;3.13;3.03;;;;;;;4.89;100.00;99396.81;5070721;28;20598;-66
2021/12/13 00:46:16;;;;;;;3.07;2.93;;;;;;;4.85;100.00;99397.69;5069607;28;20214;-66
2021/12/13 00:48:46;;;;;;;3.00;2.90;;;;;;;4.74;100.00;99385.09;5070870;28;20200;-66
2021/12/13 00:51:20;;;;;;;3.30;3.10;;;;;;;4.87;100.00;99401.06;5070005;28;20203;-66
2021/12/13 00:53:50;;;;;;;2.63;2.53;;;;;;;4.87;100.00;99416.31;5070982;28;20206;-66
2021/12/13 00:57:05;;;;;;;3.03;2.93;;;;;;;4.90;100.00;99406.13;5070674;28;20196;-66
2021/12/13 00:59:34;;;;;;;2.40;2.30;;;;;;;4.87;100.00;99403.63;5070708;28;20354;-64
2021/12/13 01:02:07;;;;;;;3.50;3.20;;;;;;;4.88;100.00;99402.75;5070684;28;20199;-64
2021/12/13 01:04:58;;;;;;;3.17;3.03;;;;;;;4.85;100.00;99402.75;5070619;28;20196;-64
2021/12/13 01:07:57;;;;;;;7.20;3.30;;;;;;;4.84;100.00;99405.34;5070721;28;20196;-64
2021/12/13 01:11:04;;;;;;;3.27;3.17;;;;;;;4.83;100.00;99404.47;5070451;28;20231;-64
2021/12/13 01:13:35;;;;;;;2.63;2.53;;;;;;;4.85;100.00;99401.94;5070266;28;20553;-64
2021/12/13 01:16:13;;;;;;;2.70;2.60;;;;;;;4.85;100.00;99397.69;5070842;28;20588;-65
2021/12/13 01:18:59;;;;;;;3.53;3.33;;;;;;;4.88;100.00;99400.19;5070516;28;20695;-67
2021/12/13 01:21:37;;;;;;;2.93;2.83;;;;;;;4.87;100.00;99401.06;5070389;28;20192;-66
2021/12/13 01:24:12;;;;;;;2.43;2.33;;;;;;;4.89;100.00;99404.44;5070773;28;20548;-66
2021/12/13 01:26:42;;;;;;;3.47;3.30;;;;;;;4.87;100.00;99406.16;5070372;28;20192;-66
2021/12/13 01:29:13;;;;;;;2.90;2.73;;;;;;;4.83;100.00;99401.94;5070630;28;20203;-66
2021/12/13 01:31:42;;;;;;;2.53;2.37;;;;;;;4.84;100.00;99401.09;5070244;28;20200;-66
2021/12/13 01:34:12;;;;;;;2.77;2.67;;;;;;;4.81;100.00;99406.19;5070301;28;20203;-66
2021/12/13 01:36:47;;;;;;;2.80;2.70;;;;;;;4.80;100.00;99399.44;5070061;28;20661;-66
2021/12/13 01:39:18;;;;;;;3.10;2.87;;;;;;;4.80;100.00;99401.13;5070260;28;20218;-66
2021/12/13 01:41:48;;;;;;;3.00;2.80;;;;;;;4.76;100.00;99405.38;5070294;28;20639;-67
2021/12/13 01:44:20;;;;;;;3.20;3.00;;;;;;;4.75;100.00;99401.13;5069340;28;20224;-66
2021/12/13 01:46:51;;;;;;;2.73;2.53;;;;;;;4.75;100.00;99396.06;5066811;28;20220;-66
2021/12/13 01:49:20;;;;;;;2.70;2.60;;;;;;;4.73;100.00;99396.09;5070645;28;20563;-66
2021/12/13 01:51:47;;;;;;;2.83;2.73;;;;;;;4.69;100.00;99391.03;5070970;28;20740;-66
2021/12/13 01:54:20;;;;;;;3.10;3.00;;;;;;;4.67;100.00;99387.66;5073905;28;20196;-66
2021/12/13 01:56:55;;;;;;;2.80;2.70;;;;;;;4.72;100.00;99391.00;5073432;28;20582;-66
2021/12/13 01:59:41;;;;;;;2.33;2.10;;;;;;;4.67;100.00;99393.59;5073826;28;20215;-66
2021/12/13 02:02:27;;;;;;;2.70;2.60;;;;;;;4.66;100.00;99385.97;5073703;28;20200;-66
2021/12/13 02:04:59;;;;;;;2.30;2.20;;;;;;;4.64;100.00;99382.63;5073848;28;20691;-66
2021/12/13 02:07:29;;;;;;;3.03;2.93;;;;;;;4.60;100.00;99373.31;5073630;28;20198;-66
2021/12/13 02:09:57;;;;;;;2.60;2.50;;;;;;;4.60;100.00;99363.16;5073682;28;20188;-66
2021/12/13 02:12:28;;;;;;;3.00;2.90;;;;;;;4.58;100.00;99368.28;5073712;28;20200;-66
2021/12/13 02:17:39;;;;;;;2.40;2.30;;;;;;;4.37;100.00;99337.09;5071401;28;20211;-66
2021/12/13 02:20:12;;;;;;;2.67;2.57;;;;;;;4.58;100.00;99372.50;5071413;28;20211;-66
2021/12/13 02:22:42;;;;;;;3.07;2.97;;;;;;;4.57;100.00;99373.34;5070975;28;20570;-66
2021/12/13 02:25:14;;;;;;;2.47;2.37;;;;;;;4.59;100.00;99379.25;5071594;28;20207;-64
2021/12/13 02:27:45;;;;;;;2.70;2.60;;;;;;;4.59;100.00;99379.25;5071040;28;20200;-65
2021/12/13 02:30:16;;;;;;;3.00;2.90;;;;;;;4.60;100.00;99388.56;5071261;28;20204;-64
2021/12/13 02:32:44;;;;;;;2.63;2.53;;;;;;;4.60;100.00;99391.94;5071046;28;20735;-64
2021/12/13 02:35:12;;;;;;;2.97;2.83;;;;;;;4.62;100.00;99391.94;5071142;28;20196;-64
2021/12/13 02:37:42;;;;;;;2.80;2.70;;;;;;;4.61;100.00;99385.19;5070813;28;20250;-64
2021/12/13 02:40:10;;;;;;;2.70;2.60;;;;;;;4.62;100.00;99386.88;5070960;28;20228;-64
2021/12/13 02:42:38;;;;;;;2.27;2.17;;;;;;;4.57;100.00;99379.28;5070103;28;20203;-64
2021/12/13 02:45:14;;;;;;;2.40;2.30;;;;;;;4.50;100.00;99375.09;5069786;28;20327;-64
2021/12/13 02:47:45;;;;;;;2.60;2.50;;;;;;;4.61;100.00;99387.72;5069789;28;20204;-66
2021/12/13 02:50:15;;;;;;;2.47;2.37;;;;;;;4.54;100.00;99386.06;5070797;28;20200;-66
2021/12/13 02:52:44;;;;;;;2.57;2.47;;;;;;;4.57;100.00;99396.19;5072875;28;20211;-66
2021/12/13 02:55:17;;;;;;;2.13;2.03;;;;;;;4.49;100.00;99382.72;5070356;28;20692;-66
2021/12/13 02:57:47;;;;;;;2.17;2.07;;;;;;;4.61;100.00;99395.34;5072685;28;20207;-66
2021/12/13 03:00:17;;;;;;;2.23;2.13;;;;;;;4.60;100.00;99401.25;5072444;28;20202;-66
2021/12/13 03:02:49;;;;;;;2.40;2.30;;;;;;;4.56;100.00;99394.50;5072785;28;20701;-66
2021/12/13 03:05:20;;;;;;;2.40;2.30;;;;;;;4.61;100.00;99400.41;5072560;28;20209;-66
2021/12/13 03:07:52;;;;;;;2.30;2.20;;;;;;;4.58;100.00;99392.81;5072544;28;20200;-66
2021/12/13 03:10:22;;;;;;;2.63;2.53;;;;;;;4.62;100.00;99399.56;5072407;28;20549;-66
2021/12/13 03:12:50;;;;;;;2.07;1.97;;;;;;;4.59;100.00;99391.94;5072469;28;20284;-66
2021/12/13 03:15:26;;;;;;;2.13;2.03;;;;;;;4.63;100.00;99399.53;5072269;28;20200;-66
2021/12/13 03:17:58;;;;;;;2.37;2.27;;;;;;;4.61;100.00;99402.94;5072527;28;20210;-66
2021/12/13 03:20:38;;;;;;;2.10;2.00;;;;;;;4.55;100.00;99385.22;5072114;28;20557;-66
2021/12/13 03:23:23;;;;;;;2.27;2.17;;;;;;;4.65;100.00;99399.53;5071884;28;20219;-66
2021/12/13 03:26:08;;;;;;;2.33;2.23;;;;;;;4.64;100.00;99397.84;5072212;28;20191;-66
2021/12/13 03:28:52;;;;;;;2.53;2.43;;;;;;;4.66;100.00;99396.97;5071912;28;20654;-66
2021/12/13 03:31:25;;;;;;;2.73;2.63;;;;;;;4.68;100.00;99396.97;5071823;28;20583;-66
2021/12/13 03:33:58;;;;;;;2.90;2.80;;;;;;;4.66;100.00;99396.13;5071990;28;20296;-66
2021/12/13 03:36:39;;;;;;;2.03;2.00;;;;;;;4.55;100.00;99388.59;5071843;28;20207;-66
2021/12/13 03:39:10;;;;;;;1.90;1.90;;;;;;;4.72;100.00;99408.78;5072165;28;20710;-66
2021/12/13 03:41:41;;;;;;;2.37;2.27;;;;;;;4.68;100.00;99410.53;5071149;28;20209;-66
2021/12/13 03:44:12;;;;;;;2.30;2.20;;;;;;;4.68;100.00;99407.13;5071021;28;20224;-66
2021/12/13 03:46:42;;;;;;;2.20;2.17;;;;;;;4.61;100.00;99402.94;5071678;28;20200;-66
2021/12/13 03:49:10;;;;;;;2.07;1.97;;;;;;;4.66;100.00;99402.06;5071471;28;20195;-66
2021/12/13 03:51:40;;;;;;;2.13;2.03;;;;;;;4.62;100.00;99402.09;5071644;28;20200;-66
2021/12/13 03:54:11;;;;;;;2.60;2.40;;;;;;;4.60;100.00;99396.16;5071404;28;20203;-66
2021/12/13 03:56:45;;;;;;;2.40;2.30;;;;;;;4.48;100.00;99391.19;5071372;28;20196;-66
2021/12/13 03:59:15;;;;;;;2.37;2.27;;;;;;;4.51;100.00;99398.78;5071163;28;20216;-66
2021/12/13 04:01:46;;;;;;;3.00;2.90;;;;;;;4.53;100.00;99414.81;5071343;28;20207;-66
2021/12/13 04:04:16;;;;;;;2.27;2.17;;;;;;;4.53;100.00;99414.81;5071170;28;20664;-66
2021/12/13 04:06:47;;;;;;;2.60;2.50;;;;;;;4.57;100.00;99416.50;5071274;28;20572;-66
2021/12/13 04:09:16;;;;;;;2.13;2.03;;;;;;;4.50;100.00;99422.47;5071254;28;20215;-66
2021/12/13 04:11:46;;;;;;;2.50;2.40;;;;;;;4.50;100.00;99428.38;5071296;28;20196;-66
2021/12/13 04:14:21;;;;;;;2.23;2.13;;;;;;;4.48;100.00;99425.03;5070719;28;20207;-66
2021/12/13 04:17:03;;;;;;;2.47;2.37;;;;;;;4.50;100.00;99430.06;5070729;28;20254;-66
2021/12/13 04:19:44;;;;;;;2.03;1.93;;;;;;;4.50;100.00;99425.00;5070888;28;20258;-66
2021/12/13 04:22:12;;;;;;;2.63;2.53;;;;;;;4.58;100.00;99443.59;5066940;28;20219;-66
2021/12/13 04:24:44;;;;;;;2.53;2.43;;;;;;;4.53;100.00;99440.22;5069998;28;20200;-66
2021/12/13 04:27:23;;;;;;;3.10;2.60;;;;;;;4.52;100.00;99443.63;5070315;28;20211;-66
2021/12/13 04:29:54;;;;;;;2.30;2.20;;;;;;;4.43;100.00;99434.34;5071025;28;20198;-66
2021/12/13 04:32:23;;;;;;;2.13;2.03;;;;;;;4.47;100.00;99447.84;5071062;28;20281;-66
2021/12/13 04:34:53;;;;;;;3.13;3.03;;;;;;;4.45;100.00;99441.97;5070946;28;20207;-66
2021/12/13 04:37:24;;;;;;;2.60;2.50;;;;;;;4.43;100.00;99436.88;5070463;28;20196;-66
2021/12/13 04:39:56;;;;;;;2.53;2.43;;;;;;;4.41;100.00;99436.06;5068257;28;20669;-66
2021/12/13 04:42:25;;;;;;;3.23;2.80;;;;;;;4.32;100.00;99402.25;5069175;28;20223;-66
2021/12/13 04:44:57;;;;;;;3.07;2.77;;;;;;;4.42;100.00;99426.75;5069533;28;20228;-66
2021/12/13 04:47:28;;;;;;;3.17;3.07;;;;;;;4.41;100.00;99433.50;5069556;28;20203;-66
2021/12/13 04:50:04;;;;;;;3.30;3.20;;;;;;;4.37;100.00;99428.44;5069748;28;20691;-67
2021/12/13 04:52:34;;;;;;;3.50;3.20;;;;;;;4.39;100.00;99436.91;5068966;28;20208;-66
2021/12/13 04:55:07;;;;;;;3.00;2.90;;;;;;;4.46;100.00;99433.50;5069999;28;20761;-66
2021/12/13 04:57:35;;;;;;;3.23;3.13;;;;;;;4.41;100.00;99427.59;5070563;28;20207;-66
2021/12/13 05:00:07;;;;;;;3.03;2.93;;;;;;;4.49;100.00;99448.72;5070736;28;20217;-66
2021/12/13 05:02:35;;;;;;;3.00;2.90;;;;;;;4.40;100.00;99428.44;5070031;28;20602;-66
2021/12/13 05:05:05;;;;;;;3.60;3.27;;;;;;;4.42;100.00;99447.91;5070806;28;20196;-64
2021/12/13 05:07:33;;;;;;;2.67;2.57;;;;;;;4.38;100.00;99435.22;5070581;28;20232;-64
2021/12/13 05:10:00;;;;;;;3.80;3.60;;;;;;;4.46;100.00;99448.72;5071035;28;20563;-64
2021/12/13 05:12:29;;;;;;;3.30;3.00;;;;;;;4.36;100.00;99427.63;5070746;28;20671;-64
2021/12/13 05:15:02;;;;;;;2.80;2.70;;;;;;;4.44;100.00;99451.25;5070282;28;20192;-65
2021/12/13 05:17:33;;;;;;;3.30;3.20;;;;;;;4.50;100.00;99451.22;5070592;28;20198;-66
2021/12/13 05:20:13;;;;;;;3.27;3.10;;;;;;;4.47;100.00;99452.94;5070618;28;20665;-65
2021/12/13 05:22:47;;;;;;;3.23;3.13;;;;;;;4.44;100.00;99458.03;5070453;28;20637;-65
2021/12/13 05:25:23;;;;;;;3.67;3.47;;;;;;;4.39;100.00;99463.16;5070513;28;20572;-65
2021/12/13 05:28:00;;;;;;;5.00;4.50;;;;;;;4.44;100.00;99466.50;5072820;28;20218;-65
2021/12/13 05:30:28;;;;;;;3.60;3.30;;;;;;;4.36;100.00;99463.16;5074472;28;20196;-65
2021/12/13 05:32:58;;;;;;;4.53;4.13;;;;;;;4.33;100.00;99462.31;5074160;28;20238;-65
2021/12/13 05:35:29;;;;;;;4.13;3.87;;;;;;;4.32;100.00;99468.25;5073432;28;20196;-65
2021/12/13 05:38:00;;;;;;;3.67;3.50;;;;;;;4.38;100.00;99470.75;5071721;28;20200;-65
2021/12/13 05:40:37;;;;;;;4.10;3.80;;;;;;;4.34;100.00;99474.13;5074199;28;20215;-65
2021/12/13 05:43:19;;;;;;;3.60;3.40;;;;;;;4.30;100.00;99469.94;5073782;28;20662;-65
2021/12/13 05:45:51;;;;;;;3.30;3.20;;;;;;;4.29;100.00;99465.72;5073678;28;20223;-65
2021/12/13 05:48:20;;;;;;;3.30;3.20;;;;;;;4.21;100.00;99469.13;5073204;28;20207;-65
2021/12/13 05:50:53;;;;;;;3.60;3.40;;;;;;;4.23;100.00;99482.63;5073796;28;20200;-65
2021/12/13 05:53:31;;;;;;;3.60;3.40;;;;;;;4.18;100.00;99479.28;5073902;28;20196;-65
2021/12/13 05:56:04;;;;;;;4.20;4.00;;;;;;;4.12;100.00;99488.59;5073757;28;20196;-65
2021/12/13 05:58:38;;;;;;;3.60;3.40;;;;;;;4.07;100.00;99486.06;5072622;28;20707;-65
2021/12/13 06:01:12;;;;;;;3.80;3.60;;;;;;;4.05;100.00;99487.78;5072174;28;20216;-65
2021/12/13 06:03:44;;;;;;;4.43;4.23;;;;;;;3.99;100.00;99492.88;5073831;28;20196;-65
2021/12/13 06:06:14;;;;;;;4.23;4.03;;;;;;;3.85;100.00;99494.56;5073426;28;20207;-65
2021/12/13 06:08:46;;;;;;;3.90;3.70;;;;;;;3.87;100.00;99492.91;5073531;28;20200;-65
2021/12/13 06:11:17;;;;;;;4.10;3.90;;;;;;;3.83;100.00;99491.22;5072947;28;20598;-65
2021/12/13 06:14:08;;;;;;;5.07;4.80;;;;;;;3.75;100.00;99492.09;5073764;28;20699;-65
2021/12/13 06:17:03;;;;;;;4.10;3.90;;;;;;;3.77;100.00;99486.16;5067841;28;20200;-65
2021/12/13 06:19:32;;;;;;;4.40;4.10;;;;;;;3.71;100.00;99486.16;5071969;28;20314;-65
2021/12/13 06:22:11;;;;;;;5.27;4.97;;;;;;;3.76;100.00;99491.22;5073142;28;20203;-65
2021/12/13 06:24:42;;;;;;;4.37;4.13;;;;;;;3.68;100.00;99488.72;5072979;28;20196;-65
2021/12/13 06:27:16;;;;;;;4.43;4.17;;;;;;;3.64;100.00;99492.09;5073066;28;20192;-65
2021/12/13 06:30:05;;;;;;;4.43;4.03;;;;;;;3.59;100.00;99492.06;5066149;28;20204;-65
2021/12/13 06:32:40;;;;;;;4.70;4.40;;;;;;;3.55;100.00;99489.56;5065555;28;20207;-63
2021/12/13 06:35:42;;;;;;;3.87;3.67;;;;;;;3.54;100.00;99493.78;5068673;28;20670;-63
2021/12/13 06:38:35;;;;;;;3.73;3.53;;;;;;;3.46;100.00;99498.00;5055235;28;20208;-63
2021/12/13 06:41:07;;;;;;;5.33;4.90;;;;;;;3.41;100.00;99501.38;5067015;28;20226;-63
2021/12/13 06:43:36;;;;;;;4.60;4.20;;;;;;;3.37;100.00;99500.53;5063496;28;20583;-63
2021/12/13 06:46:08;;;;;;;4.43;4.23;;;;;;;3.39;100.00;99509.00;5063053;28;20216;-64
2021/12/13 06:48:40;;;;;;;4.40;4.20;;;;;;;3.39;100.00;99516.59;5069720;28;20660;-67
2021/12/13 06:51:09;;;;;;;4.07;3.87;;;;;;;3.34;100.00;99525.03;5069209;28;20207;-66
2021/12/13 06:53:36;;;;;;;4.60;4.30;;;;;;;3.31;100.00;99519.97;5069210;28;20204;-66
2021/12/13 06:56:18;;;;;;;4.20;3.90;;;;;;;3.29;100.00;99519.13;5067526;28;20200;-66
2021/12/13 06:58:50;;;;;;;4.47;4.17;;;;;;;3.30;100.00;99518.25;5065511;28;20203;-67
2021/12/13 07:01:18;;;;;;;4.37;4.00;;;;;;;3.31;100.00;99519.97;5066837;28;20224;-66
2021/12/13 07:03:54;;;;;;;3.77;3.57;;;;;;;3.22;100.00;99507.28;5069491;28;20203;-67
2021/12/13 07:06:21;;;;;;;4.10;3.90;;;;;;;3.32;100.00;99521.66;5068414;28;20196;-67
2021/12/13 07:09:05;;;;;;;4.43;4.13;;;;;;;3.35;100.00;99531.78;5067420;28;20212;-67
2021/12/13 07:11:48;;;;;;;4.57;4.17;;;;;;;3.36;100.00;99533.50;5068492;28;20282;-67
2021/12/13 07:14:19;;;;;;;5.00;4.60;;;;;;;3.37;100.00;99541.06;5067782;28;20705;-68
2021/12/13 07:16:51;;;;;;;4.40;4.07;;;;;;;3.36;100.00;99539.38;5066355;28;20200;-68
2021/12/13 07:19:21;;;;;;;4.13;3.93;;;;;;;3.38;100.00;99547.00;5068735;28;20208;-68
2021/12/13 07:21:54;;;;;;;4.33;3.70;;;;;;;3.37;100.00;99545.28;5068494;28;20222;-68
2021/12/13 07:24:35;;;;;;;3.73;3.60;;;;;;;3.29;100.00;99542.78;5068285;28;20286;-67
2021/12/13 07:27:07;;;;;;;4.50;4.30;;;;;;;3.40;100.00;99560.50;5067501;28;20233;-68
2021/12/13 07:29:42;;;;;;;4.80;4.50;;;;;;;3.39;100.00;99568.97;5067603;28;20207;-67
2021/12/13 07:32:16;;;;;;;3.97;3.77;;;;;;;3.38;100.00;99574.88;5066695;28;20203;-67
2021/12/13 07:35:09;;;;;;;4.63;4.33;;;;;;;3.35;100.00;99568.13;5067926;28;20203;-67
2021/12/13 07:37:44;;;;;;;4.60;4.30;;;;;;;3.37;100.00;99571.47;5053689;28;20203;-67
2021/12/13 07:40:21;;;;;;;5.13;4.83;;;;;;;3.35;100.00;99572.31;5068364;28;20224;-67
2021/12/13 07:42:56;;;;;;;4.90;4.60;;;;;;;3.40;100.00;99583.31;5067446;28;20671;-67
2021/12/13 07:45:27;;;;;;;4.10;3.80;;;;;;;3.42;100.00;99584.16;5065165;28;20227;-66
2021/12/13 07:47:57;;;;;;;4.40;4.20;;;;;;;3.43;100.00;99595.97;5066859;28;20568;-66
2021/12/13 07:50:25;;;;;;;5.27;4.87;;;;;;;3.45;100.00;99595.16;5067814;28;20204;-67
2021/12/13 07:53:00;;;;;;;4.90;4.60;;;;;;;3.46;100.00;99588.38;5068198;28;20683;-67
2021/12/13 07:55:30;;;;;;;4.60;4.30;;;;;;;3.47;100.00;99597.69;5066359;28;20598;-66
2021/12/13 07:58:01;;;;;;;5.40;5.10;;;;;;;3.50;100.00;99595.13;5066839;28;20214;-67
2021/12/13 08:00:34;;;;;;;5.30;5.00;;;;;;;3.53;100.00;99605.28;5066867;28;20226;-67
2021/12/13 08:03:07;;;;;;;5.07;4.77;;;;;;;3.58;100.00;99611.22;5067111;28;20204;-67
2021/12/13 08:05:38;;;;;;;5.70;5.20;;;;;;;3.54;100.00;99614.59;5068148;28;20192;-67
2021/12/13 08:08:15;;;;;;;5.33;5.03;;;;;;;3.50;100.00;99616.25;5069594;28;20203;-66
2021/12/13 08:10:45;;;;;;;4.90;4.60;;;;;;;3.52;100.00;99616.28;5068526;28;20203;-67
2021/12/13 08:13:15;;;;;;;4.93;4.63;;;;;;;3.49;100.00;99603.63;5064628;28;20200;-66
2021/12/13 08:15:46;;;;;;;6.17;5.77;;;;;;;3.59;100.00;99617.97;5066637;28;20196;-67
2021/12/13 08:18:25;;;;;;;4.97;4.67;;;;;;;3.62;100.00;99615.44;5064927;28;20200;-66
2021/12/13 08:20:55;;;;;;;4.87;4.57;;;;;;;3.59;100.00;99617.97;5065417;28;20788;-66
2021/12/13 08:23:26;;;;;;;5.27;4.97;;;;;;;3.63;100.00;99619.66;5065214;28;20294;-66
2021/12/13 08:25:57;;;;;;;6.43;5.93;;;;;;;3.64;100.00;99626.44;5065419;28;20265;-66
2021/12/13 08:28:35;;;;;;;5.93;5.57;;;;;;;3.65;100.00;99618.00;5066610;28;20207;-66
2021/12/13 08:31:04;;;;;;;5.30;5.00;;;;;;;3.68;100.00;99623.06;5066708;28;20208;-66
2021/12/13 08:33:37;;;;;;;5.67;5.37;;;;;;;3.69;100.00;99627.28;5066303;28;20587;-66
2021/12/13 08:36:09;;;;;;;6.63;5.90;;;;;;;3.69;100.00;99623.03;5067623;28;20211;-66
2021/12/13 08:38:44;;;;;;;6.33;5.70;;;;;;;3.69;100.00;99620.50;5066661;28;20228;-66
2021/12/13 08:41:39;;;;;;;5.63;5.23;;;;;;;3.75;100.00;99634.88;5065267;28;20218;-66
2021/12/13 08:44:17;;;;;;;6.00;5.60;;;;;;;3.74;100.00;99630.66;5053256;28;20219;-67
2021/12/13 08:46:46;;;;;;;6.00;5.47;;;;;;;3.78;100.00;99619.66;5064496;28;20214;-66
2021/12/13 08:49:19;;;;;;;5.33;5.03;;;;;;;3.82;100.00;99616.28;5062397;28;20215;-67
2021/12/13 08:52:01;;;;;;;5.40;5.00;;;;;;;3.84;100.00;99624.75;5060883;28;20213;-67
2021/12/13 08:54:42;;;;;;;5.33;5.03;;;;;;;3.72;100.00;99627.28;5066288;28;20667;-67
2021/12/13 08:57:12;;;;;;;4.97;4.67;;;;;;;3.76;100.00;99623.91;5064022;28;20207;-67
2021/12/13 08:59:49;;;;;;;6.30;5.50;;;;;;;3.78;100.00;99622.19;5066570;28;20212;-68
2021/12/13 09:02:16;;;;;;;5.77;5.37;;;;;;;3.76;100.00;99625.59;5069970;28;20208;-67
2021/12/13 09:04:57;;;;;;;5.53;5.13;;;;;;;3.72;100.00;99619.66;5071345;28;20290;-67
2021/12/13 09:07:25;;;;;;;6.33;5.83;;;;;;;3.74;100.00;99622.22;5072893;28;20208;-66
2021/12/13 09:09:53;;;;;;;6.53;6.00;;;;;;;3.77;100.00;99612.94;5070659;28;20699;-67
2021/12/13 09:12:29;;;;;;;6.37;5.77;;;;;;;3.78;100.00;99621.38;5070480;28;20210;-67
2021/12/13 09:14:57;;;;;;;4.73;4.53;;;;;;;3.80;100.00;99617.16;5070406;28;20206;-67
2021/12/13 09:17:31;;;;;;;5.20;4.90;;;;;;;3.76;100.00;99608.69;5069505;28;20583;-66
2021/12/13 09:20:04;;;;;;;4.90;4.70;;;;;;;3.77;100.00;99614.59;5070354;28;20236;-67
2021/12/13 09:22:34;;;;;;;5.27;4.93;;;;;;;3.77;100.00;99607.84;5067568;28;20204;-67
2021/12/13 09:25:07;;;;;;;4.80;4.50;;;;;;;3.71;100.00;99612.94;5067258;28;20200;-67
2021/12/13 09:27:40;;;;;;;5.03;4.63;;;;;;;3.78;100.00;99611.25;5063645;28;20212;-67
2021/12/13 09:30:17;;;;;;;5.77;5.20;;;;;;;3.74;100.00;99612.94;5069051;28;20214;-67
2021/12/13 09:32:47;;;;;;;5.37;5.03;;;;;;;3.72;100.00;99609.53;5069059;28;20257;-68
2021/12/13 09:35:44;;;;;;;4.83;4.60;;;;;;;3.67;100.00;99611.22;5067906;28;20269;-68
2021/12/13 09:38:47;;;;;;;5.60;5.20;;;;;;;3.65;100.00;99612.94;5068088;28;20216;-68
2021/12/13 09:41:33;;;;;;;5.37;5.07;;;;;;;3.64;100.00;99606.16;5062195;28;20595;-69
2021/12/13 09:44:06;;;;;;;4.87;4.57;;;;;;;3.70;100.00;99606.16;5065339;28;20239;-68
2021/12/13 09:46:39;;;;;;;5.73;5.20;;;;;;;3.64;100.00;99606.16;5065579;28;20630;-67
2021/12/13 09:49:10;;;;;;;6.07;5.67;;;;;;;3.61;100.00;99608.69;5067714;28;20206;-68
2021/12/13 09:51:43;;;;;;;7.03;5.83;;;;;;;3.63;100.00;99609.53;5067353;28;20207;-67
2021/12/13 09:54:13;;;;;;;6.37;5.80;;;;;;;3.61;100.00;99608.69;5064417;28;20200;-67
2021/12/13 09:56:49;;;;;;;5.50;4.93;;;;;;;3.68;100.00;99608.66;5066730;28;20321;-67
2021/12/13 09:59:21;;;;;;;6.63;6.03;;;;;;;3.62;100.00;99602.75;5073503;28;20207;-67
2021/12/13 10:01:49;;;;;;;5.70;5.30;;;;;;;3.64;100.00;99608.69;5072476;28;20224;-67
2021/12/13 10:04:19;;;;;;;6.33;5.87;;;;;;;3.59;100.00;99607.81;5073356;28;20206;-68
2021/12/13 10:06:51;;;;;;;5.63;5.23;;;;;;;3.65;100.00;99602.78;5072655;28;20622;-69
2021/12/13 10:09:22;;;;;;;5.93;5.47;;;;;;;3.64;100.00;99606.16;5072516;28;20204;-69
2021/12/13 10:11:53;;;;;;;7.27;5.87;;;;;;;3.53;100.00;99592.59;5067076;28;20982;-68
2021/12/13 10:14:25;;;;;;;5.93;5.43;;;;;;;3.66;100.00;99612.91;5067492;28;20196;-68
2021/12/13 10:16:55;;;;;;;6.00;5.53;;;;;;;3.62;100.00;99610.34;5070789;28;20204;-68
2021/12/13 10:19:37;;;;;;;5.67;5.30;;;;;;;3.63;100.00;99607.84;5067192;28;20200;-69
2021/12/13 10:22:06;;;;;;;5.50;5.20;;;;;;;3.68;100.00;99612.94;5067476;28;20216;-68
2021/12/13 10:24:37;;;;;;;6.50;6.03;;;;;;;3.74;100.00;99615.47;5069450;28;20607;-69
2021/12/13 10:27:07;;;;;;;8.50;6.53;;;;;;;3.69;100.00;99605.31;5065085;28;20215;-67
2021/12/13 10:29:34;;;;;;;5.40;5.10;;;;;;;3.71;100.00;99602.78;5068032;28;20698;-67
2021/12/13 10:32:05;;;;;;;6.60;5.93;;;;;;;3.73;100.00;99603.63;5065685;28;20204;-68
2021/12/13 10:34:34;;;;;;;7.13;5.87;;;;;;;3.70;100.00;99601.09;5066575;28;20729;-67
2021/12/13 10:37:05;;;;;;;6.37;5.77;;;;;;;3.69;100.00;99604.44;5068763;28;20204;-67
2021/12/13 10:39:37;;;;;;;7.17;5.80;;;;;;;3.72;100.00;99599.38;5066798;28;20208;-67
2021/12/13 10:42:08;;;;;;;7.00;6.33;;;;;;;3.69;100.00;99599.38;5067308;28;20226;-68
2021/12/13 10:44:38;;;;;;;6.40;5.90;;;;;;;3.68;100.00;99597.72;5069132;28;20234;-67
2021/12/13 10:47:07;;;;;;;7.30;6.70;;;;;;;3.72;100.00;99594.31;5069287;28;20206;-68
2021/12/13 10:49:38;;;;;;;8.60;6.30;;;;;;;3.68;100.00;99606.13;5063914;28;20215;-68
2021/12/13 10:52:09;;;;;;;6.90;6.40;;;;;;;3.70;100.00;99594.31;5069262;28;20199;-68
2021/12/13 10:54:41;;;;;;;6.70;6.20;;;;;;;3.66;100.00;99594.31;5066070;28;20210;-69
2021/12/13 10:57:12;;;;;;;5.57;5.17;;;;;;;3.70;100.00;99596.88;5067900;28;20211;-68
2021/12/13 10:59:41;;;;;;;5.80;5.40;;;;;;;3.72;100.00;99599.38;5066792;28;20200;-67
2021/12/13 11:02:12;;;;;;;5.60;5.20;;;;;;;3.72;100.00;99596.84;5067827;28;20223;-67
2021/12/13 11:04:44;;;;;;;5.83;5.53;;;;;;;3.68;100.00;99592.66;5067712;28;20207;-69
2021/12/13 11:07:13;;;;;;;6.10;5.73;;;;;;;3.68;100.00;99587.56;5065946;28;20204;-68
2021/12/13 11:09:43;;;;;;;6.03;5.63;;;;;;;3.70;100.00;99588.41;5063734;28;20204;-67
2021/12/13 11:12:13;;;;;;;6.13;5.50;;;;;;;3.63;100.00;99589.25;5066684;28;20200;-67
2021/12/13 11:14:43;;;;;;;5.87;5.33;;;;;;;3.66;100.00;99586.72;5066852;28;20220;-68
2021/12/13 11:17:14;;;;;;;6.53;6.03;;;;;;;3.70;100.00;99585.88;5066813;28;20211;-68
2021/12/13 11:19:45;;;;;;;6.83;6.23;;;;;;;3.67;100.00;99585.88;5068569;28;20204;-67
2021/12/13 11:22:18;;;;;;;5.97;5.57;;;;;;;3.65;100.00;99580.78;5066997;28;20216;-68
2021/12/13 11:24:54;;;;;;;6.83;6.33;;;;;;;3.68;100.00;99585.03;5066308;28;20208;-67
2021/12/13 11:27:24;;;;;;;6.60;6.20;;;;;;;3.69;100.00;99585.03;5068866;28;20210;-68
2021/12/13 11:29:53;;;;;;;7.10;6.37;;;;;;;3.64;100.00;99580.81;5067464;28;20584;-67
2021/12/13 11:32:52;;;;;;;7.30;6.83;;;;;;;3.61;100.00;99580.81;5058423;28;20207;-69
2021/12/13 11:36:05;;;;;;;10.17;5.83;;;;;;;3.48;100.00;99585.03;5062772;28;20579;-68
2021/12/13 11:39:20;;;;;;;7.00;6.30;;;;;;;3.44;100.00;99593.47;5067932;28;20952;-68
2021/12/13 11:42:26;;;;;;;6.97;6.33;;;;;;;3.46;100.00;99588.38;5002556;28;20221;-67
2021/12/13 11:45:20;;;;;;;6.67;6.17;;;;;;;3.39;100.00;99584.16;5004394;28;20237;-67
2021/12/13 11:48:17;;;;;;;6.43;5.93;;;;;;;3.34;100.00;99580.75;5064420;28;20227;-67
2021/12/13 11:51:03;;;;;;;6.70;6.20;;;;;;;3.38;100.00;99585.84;5068442;28;20330;-67
2021/12/13 11:54:04;;;;;;;7.40;6.70;;;;;;;3.36;100.00;99589.22;5068250;28;20211;-67
2021/12/13 11:57:12;;;;;;;7.60;6.90;;;;;;;3.31;100.00;99585.81;5068574;28;20254;-67
2021/12/13 11:59:52;;;;;;;6.67;6.17;;;;;;;3.26;100.00;99585.00;5067187;28;20253;-68
2021/12/13 12:02:29;;;;;;;7.87;7.17;;;;;;;3.29;100.00;99587.53;5066977;28;20223;-68
2021/12/13 12:05:30;;;;;;;6.90;6.40;;;;;;;3.23;100.00;99587.50;5068128;28;20204;-67
2021/12/13 12:08:25;;;;;;;7.70;6.90;;;;;;;3.23;100.00;99582.44;5069855;28;20694;-67
2021/12/13 12:11:24;;;;;;;8.00;7.27;;;;;;;3.32;100.00;99592.59;5067835;28;20208;-68